createdAt,value
2023-01-30T00:01:27.320Z,13.50
2023-01-30T00:04:04.708Z,13.90
2023-01-30T00:06:42.718Z,13.90
2023-01-30T00:09:20.876Z,12.80
2023-01-30T00:11:58.267Z,13.00
2023-01-30T00:14:34.813Z,12.70
2023-01-30T00:17:11.593Z,12.90
2023-01-30T00:19:48.442Z,13.60
2023-01-30T00:22:25.073Z,12.00
2023-01-30T00:25:02.099Z,13.60
2023-01-30T00:27:39.700Z,13.40
2023-01-30T00:30:21.163Z,12.50
2023-01-30T00:33:01.952Z,12.30
2023-01-30T00:35:37.669Z,13.00
2023-01-30T00:38:14.391Z,13.40
2023-01-30T00:40:51.686Z,13.40
2023-01-30T00:43:45.555Z,14.00
2023-01-30T00:47:05.762Z,13.40
2023-01-30T00:49:42.389Z,12.80
2023-01-30T00:52:18.986Z,14.30
2023-01-30T00:54:55.405Z,13.30
2023-01-30T00:57:32.164Z,13.30
2023-01-30T01:00:11.103Z,13.00
2023-01-30T01:02:50.101Z,11.80
2023-01-30T01:05:26.607Z,11.60
2023-01-30T01:08:03.543Z,11.50
2023-01-30T01:10:40.152Z,11.10
2023-01-30T01:13:17.093Z,10.60
2023-01-30T01:15:54.463Z,12.00
2023-01-30T01:18:31.431Z,11.50
2023-01-30T01:21:08.482Z,10.80
2023-01-30T01:23:44.620Z,10.20
2023-01-30T01:26:21.703Z,10.00
2023-01-30T01:29:01.983Z,10.40
2023-01-30T01:31:39.885Z,10.00
2023-01-30T01:34:16.547Z,10.80
2023-01-30T01:36:56.420Z,12.10
2023-01-30T01:39:46.498Z,10.90
2023-01-30T01:42:23.104Z,9.90
2023-01-30T01:45:20.667Z,13.50
2023-01-30T01:48:12.433Z,12.20
2023-01-30T01:50:56.314Z,14.20
2023-01-30T01:53:41.402Z,15.90
2023-01-30T01:56:22.066Z,15.90
2023-01-30T01:59:05.148Z,15.00
2023-01-30T02:01:41.593Z,14.10
2023-01-30T02:04:39.057Z,13.30
2023-01-30T02:07:17.579Z,13.50
2023-01-30T02:09:55.763Z,14.60
2023-01-30T02:12:33.663Z,11.90
2023-01-30T02:15:15.916Z,11.60
2023-01-30T02:17:52.628Z,9.70
2023-01-30T02:20:47.860Z,10.00
2023-01-30T02:24:09.412Z,10.50
2023-01-30T02:27:21.819Z,9.70
2023-01-30T02:30:27.894Z,9.70
2023-01-30T02:33:19.953Z,11.00
2023-01-30T02:36:12.940Z,11.80
2023-01-30T02:39:03.217Z,12.20
2023-01-30T02:41:51.065Z,11.30
2023-01-30T02:44:40.830Z,11.90
2023-01-30T02:47:24.684Z,9.70
2023-01-30T02:50:10.411Z,11.00
2023-01-30T02:52:48.392Z,14.30
2023-01-30T02:55:30.770Z,11.50
2023-01-30T02:58:09.112Z,14.30
2023-01-30T03:01:19.680Z,14.60
2023-01-30T03:04:27.715Z,12.60
2023-01-30T03:07:25.875Z,10.60
2023-01-30T03:10:12.294Z,9.20
2023-01-30T03:13:05.303Z,9.20
2023-01-30T03:15:48.985Z,12.10
2023-01-30T03:18:25.814Z,12.60
2023-01-30T03:21:09.705Z,15.20
2023-01-30T03:23:47.130Z,13.90
2023-01-30T03:26:27.757Z,14.20
2023-01-30T03:29:05.055Z,13.10
2023-01-30T03:31:42.267Z,13.30
2023-01-30T03:34:19.615Z,12.60
2023-01-30T03:36:57.304Z,13.40
2023-01-30T03:39:33.602Z,12.10
2023-01-30T03:42:11.731Z,12.40
2023-01-30T03:44:48.566Z,13.40
2023-01-30T03:47:25.524Z,13.60
2023-01-30T03:50:02.274Z,12.30
2023-01-30T03:52:42.743Z,12.60
2023-01-30T03:55:21.864Z,11.10
2023-01-30T03:58:02.510Z,10.50
2023-01-30T04:00:41.807Z,10.50
2023-01-30T04:03:18.499Z,9.70
2023-01-30T04:05:56.036Z,10.30
2023-01-30T04:08:32.611Z,9.50
2023-01-30T04:11:09.618Z,9.10
2023-01-30T04:13:46.126Z,8.90
2023-01-30T04:16:29.864Z,13.10
2023-01-30T04:19:36.121Z,13.10
2023-01-30T04:22:12.515Z,11.80
2023-01-30T04:24:49.711Z,12.30
2023-01-30T04:27:25.985Z,11.90
2023-01-30T04:30:22.352Z,11.10
2023-01-30T04:33:02.165Z,11.90
2023-01-30T04:35:38.458Z,11.60
2023-01-30T04:38:15.689Z,10.40
2023-01-30T04:40:56.639Z,11.90
2023-01-30T04:43:35.581Z,11.30
2023-01-30T04:46:15.102Z,11.00
2023-01-30T04:48:52.069Z,11.30
2023-01-30T04:51:28.840Z,10.40
2023-01-30T04:54:09.000Z,11.10
2023-01-30T04:56:45.373Z,11.20
2023-01-30T04:59:21.369Z,10.50
2023-01-30T05:01:57.753Z,11.50
2023-01-30T05:04:34.642Z,10.80
2023-01-30T05:07:12.019Z,9.50
2023-01-30T05:09:48.160Z,10.50
2023-01-30T05:12:25.530Z,14.40
2023-01-30T05:15:03.361Z,15.80
2023-01-30T05:17:42.008Z,14.30
2023-01-30T05:20:24.157Z,11.70
2023-01-30T05:23:00.856Z,12.00
2023-01-30T05:25:37.594Z,10.10
2023-01-30T05:28:14.973Z,10.40
2023-01-30T05:30:51.354Z,9.80
2023-01-30T05:33:29.044Z,9.80
2023-01-30T05:36:06.694Z,9.00
2023-01-30T05:38:45.464Z,9.90
2023-01-30T05:41:23.847Z,9.60
2023-01-30T05:44:00.476Z,9.00
2023-01-30T05:46:36.663Z,8.40
2023-01-30T05:49:14.104Z,9.10
2023-01-30T05:51:51.658Z,9.60
2023-01-30T05:54:29.576Z,9.50
2023-01-30T05:57:06.131Z,11.80
2023-01-30T05:59:43.104Z,10.10
2023-01-30T06:02:20.315Z,10.60
2023-01-30T06:04:56.979Z,10.40
2023-01-30T06:07:32.830Z,9.10
2023-01-30T06:10:12.895Z,12.50
2023-01-30T06:12:49.915Z,13.20
2023-01-30T06:15:27.286Z,12.70
2023-01-30T06:18:04.283Z,11.10
2023-01-30T06:20:41.497Z,11.90
2023-01-30T06:23:18.561Z,12.20
2023-01-30T06:25:56.995Z,11.50
2023-01-30T06:28:34.024Z,10.60
2023-01-30T06:31:13.137Z,11.20
2023-01-30T06:33:51.285Z,10.10
2023-01-30T06:36:28.721Z,10.70
2023-01-30T06:39:05.359Z,10.70
2023-01-30T06:41:42.515Z,10.20
2023-01-30T06:44:19.906Z,9.20
2023-01-30T06:46:57.695Z,10.00
2023-01-30T06:49:34.474Z,9.60
2023-01-30T06:52:12.644Z,9.30
2023-01-30T06:54:49.045Z,10.40
2023-01-30T06:57:26.247Z,8.70
2023-01-30T07:00:03.405Z,8.40
2023-01-30T07:02:40.661Z,9.80
2023-01-30T07:05:18.536Z,12.20
2023-01-30T07:07:55.229Z,12.50
2023-01-30T07:10:32.749Z,12.80
2023-01-30T07:13:10.058Z,11.50
2023-01-30T07:15:47.181Z,12.50
2023-01-30T07:18:24.670Z,11.60
2023-01-30T07:21:02.229Z,12.50
2023-01-30T07:23:39.423Z,11.90
2023-01-30T07:26:16.678Z,12.80
2023-01-30T07:28:53.899Z,12.20
2023-01-30T07:31:30.347Z,13.40
2023-01-30T07:34:07.501Z,14.00
2023-01-30T07:36:44.495Z,12.00
2023-01-30T07:39:21.620Z,11.60
2023-01-30T07:41:58.690Z,10.40
2023-01-30T07:44:36.037Z,11.00
2023-01-30T07:47:13.189Z,9.00
2023-01-30T07:49:50.118Z,9.80
2023-01-30T07:52:27.014Z,13.70
2023-01-30T07:55:04.511Z,16.30
2023-01-30T07:57:42.980Z,16.20
2023-01-30T08:00:28.024Z,16.50
2023-01-30T08:03:04.777Z,18.20
2023-01-30T08:05:40.904Z,20.10
2023-01-30T08:08:17.517Z,16.50
2023-01-30T08:10:56.879Z,15.20
2023-01-30T08:13:33.388Z,15.30
2023-01-30T08:16:12.531Z,14.80
2023-01-30T08:18:49.340Z,13.60
2023-01-30T08:21:25.621Z,13.20
2023-01-30T08:24:01.604Z,17.00
2023-01-30T08:26:38.551Z,15.20
2023-01-30T08:29:15.733Z,16.40
2023-01-30T08:31:52.705Z,15.10
2023-01-30T08:34:28.718Z,12.00
2023-01-30T08:37:05.417Z,12.60
2023-01-30T08:39:42.449Z,12.00
2023-01-30T08:42:19.652Z,12.20
2023-01-30T08:44:56.485Z,11.70
2023-01-30T08:47:33.243Z,11.50
2023-01-30T08:50:12.878Z,12.40
2023-01-30T08:52:50.403Z,15.20
2023-01-30T08:55:26.572Z,15.70
2023-01-30T08:58:03.853Z,14.70
2023-01-30T09:00:44.658Z,13.70
2023-01-30T09:03:22.733Z,13.20
2023-01-30T09:06:03.509Z,13.80
2023-01-30T09:08:40.324Z,12.00
2023-01-30T09:11:18.036Z,12.90
2023-01-30T09:13:54.875Z,13.40
2023-01-30T09:16:32.521Z,12.50
2023-01-30T09:19:09.223Z,9.10
2023-01-30T09:21:45.281Z,11.90
2023-01-30T09:24:21.408Z,11.80
2023-01-30T09:26:59.193Z,11.00
2023-01-30T09:29:35.411Z,11.40
2023-01-30T09:32:12.327Z,11.00
2023-01-30T09:34:49.390Z,12.00
2023-01-30T09:37:25.704Z,12.00
2023-01-30T09:40:02.984Z,12.70
2023-01-30T09:43:13.638Z,12.90
2023-01-30T09:46:15.423Z,12.70
2023-01-30T09:49:06.057Z,12.20
2023-01-30T09:52:00.791Z,12.70
2023-01-30T09:54:43.111Z,12.70
2023-01-30T09:57:26.723Z,11.30
2023-01-30T10:00:14.594Z,12.50
2023-01-30T10:03:02.136Z,14.10
2023-01-30T10:05:47.090Z,12.90
2023-01-30T10:08:52.908Z,12.40
2023-01-30T10:11:55.467Z,13.00
2023-01-30T10:14:47.940Z,12.40
2023-01-30T10:17:48.510Z,11.50
2023-01-30T10:20:49.042Z,12.80
2023-01-30T10:23:59.360Z,12.20
2023-01-30T10:26:36.507Z,12.70
2023-01-30T10:29:22.052Z,11.60
2023-01-30T10:32:12.915Z,12.90
2023-01-30T10:34:56.147Z,13.40
2023-01-30T10:37:43.021Z,12.40
2023-01-30T10:40:29.502Z,11.90
2023-01-30T10:43:16.814Z,12.50
2023-01-30T10:46:04.675Z,11.20
2023-01-30T10:49:02.121Z,17.10
2023-01-30T10:51:57.865Z,16.20
2023-01-30T10:54:40.589Z,17.60
2023-01-30T10:57:32.433Z,18.20
2023-01-30T11:00:18.278Z,15.60
2023-01-30T11:03:30.315Z,19.00
2023-01-30T11:06:13.414Z,14.60
2023-01-30T11:08:50.008Z,16.70
2023-01-30T11:11:37.601Z,17.20
2023-01-30T11:14:15.826Z,15.30
2023-01-30T11:16:56.721Z,14.10
2023-01-30T11:19:40.912Z,14.40
2023-01-30T11:22:21.688Z,15.90
2023-01-30T11:25:14.053Z,14.30
2023-01-30T11:28:02.804Z,15.20
2023-01-30T11:30:42.311Z,16.60
2023-01-30T11:33:23.255Z,17.30
2023-01-30T11:36:05.894Z,19.00
2023-01-30T11:38:57.728Z,18.50
2023-01-30T11:41:36.225Z,19.10
2023-01-30T11:44:14.614Z,20.70
2023-01-30T11:46:52.154Z,18.80
2023-01-30T11:49:45.993Z,20.20
2023-01-30T11:52:38.491Z,17.10
2023-01-30T11:55:23.378Z,19.20
2023-01-30T11:58:04.577Z,23.50
2023-01-30T12:00:49.730Z,21.00
2023-01-30T12:03:29.619Z,22.70
2023-01-30T12:06:09.164Z,21.00
2023-01-30T12:08:48.065Z,20.40
2023-01-30T12:11:45.384Z,20.90
2023-01-30T12:14:44.400Z,20.50
2023-01-30T12:17:30.304Z,23.10
2023-01-30T12:20:20.792Z,22.30
2023-01-30T12:23:11.843Z,20.10
2023-01-30T12:26:01.838Z,21.60
2023-01-30T12:28:49.537Z,20.70
2023-01-30T12:31:32.143Z,22.80
2023-01-30T12:34:11.132Z,25.70
2023-01-30T12:37:04.774Z,25.20
2023-01-30T12:39:58.641Z,24.70
2023-01-30T12:43:04.749Z,26.80
2023-01-30T12:45:48.840Z,26.90
2023-01-30T12:49:11.733Z,21.10
2023-01-30T12:52:16.023Z,22.40
2023-01-30T12:55:05.185Z,26.00
2023-01-30T12:57:53.226Z,25.80
2023-01-30T13:01:12.030Z,25.70
2023-01-30T13:03:57.801Z,22.80
2023-01-30T13:07:00.899Z,29.10
2023-01-30T13:10:01.103Z,30.60
2023-01-30T13:12:51.660Z,26.50
2023-01-30T13:15:40.869Z,28.70
2023-01-30T13:18:25.078Z,24.90
2023-01-30T13:21:14.655Z,29.90
2023-01-30T13:24:09.799Z,29.80
2023-01-30T13:26:48.650Z,26.20
2023-01-30T13:29:36.052Z,27.20
2023-01-30T13:32:21.660Z,24.80
2023-01-30T13:35:02.285Z,23.20
2023-01-30T13:37:40.631Z,27.00
2023-01-30T13:40:27.912Z,24.20
2023-01-30T13:43:15.070Z,23.30
2023-01-30T13:45:55.650Z,25.10
2023-01-30T13:48:49.755Z,23.30
2023-01-30T13:51:51.170Z,23.50
2023-01-30T13:54:50.127Z,27.00
2023-01-30T13:57:46.182Z,25.20
2023-01-30T14:00:35.222Z,27.60
2023-01-30T14:03:44.301Z,25.30
2023-01-30T14:06:41.711Z,25.50
2023-01-30T14:09:35.771Z,25.20
2023-01-30T14:12:22.792Z,28.80
2023-01-30T14:15:24.507Z,27.30
2023-01-30T14:18:19.920Z,28.50
2023-01-30T14:21:15.162Z,29.40
2023-01-30T14:24:03.232Z,30.40
2023-01-30T14:27:24.704Z,27.50
2023-01-30T14:30:02.873Z,26.30
2023-01-30T14:32:59.423Z,27.70
2023-01-30T14:35:36.600Z,25.30
2023-01-30T14:38:21.591Z,26.60
2023-01-30T14:41:31.162Z,28.70
2023-01-30T14:44:10.422Z,30.80
2023-01-30T14:46:59.853Z,24.50
2023-01-30T14:49:45.941Z,29.70
2023-01-30T14:52:42.021Z,27.20
2023-01-30T14:55:30.003Z,22.70
2023-01-30T14:58:17.903Z,21.40
2023-01-30T15:01:02.419Z,22.90
2023-01-30T15:03:41.692Z,21.60
2023-01-30T15:06:20.039Z,20.50
2023-01-30T15:08:57.569Z,21.40
2023-01-30T15:11:39.776Z,21.20
2023-01-30T15:14:25.574Z,22.70
2023-01-30T15:17:28.297Z,23.20
2023-01-30T15:20:44.597Z,23.60
2023-01-30T15:26:53.604Z,24.30
2023-01-30T15:30:05.871Z,24.00
2023-01-30T15:32:43.620Z,23.50
2023-01-30T15:35:30.321Z,22.60
2023-01-30T15:38:06.243Z,22.00
2023-01-30T15:40:46.568Z,22.50
2023-01-30T15:43:53.153Z,20.70
2023-01-30T15:46:44.292Z,22.50
2023-01-30T15:49:52.001Z,22.00
2023-01-30T15:52:33.726Z,23.30
2023-01-30T15:55:18.147Z,27.50
2023-01-30T15:57:59.343Z,28.50
2023-01-30T16:00:43.102Z,29.10
2023-01-30T16:03:27.663Z,30.00
2023-01-30T16:06:05.059Z,25.70
2023-01-30T16:08:42.939Z,24.10
2023-01-30T16:11:34.478Z,26.80
2023-01-30T16:14:14.744Z,24.70
2023-01-30T16:16:55.991Z,28.80
2023-01-30T16:19:37.829Z,25.60
2023-01-30T16:22:25.272Z,23.60
2023-01-30T16:25:03.150Z,25.40
2023-01-30T16:27:41.981Z,26.40
2023-01-30T16:30:27.507Z,25.30
2023-01-30T16:33:13.422Z,29.60
2023-01-30T16:35:52.588Z,24.80
2023-01-30T16:38:46.508Z,30.60
2023-01-30T16:41:37.628Z,34.20
2023-01-30T16:44:25.462Z,34.60
2023-01-30T16:47:07.780Z,34.00
2023-01-30T16:50:00.058Z,33.80
2023-01-30T16:52:47.232Z,32.60
2023-01-30T16:55:30.002Z,31.70
2023-01-30T16:58:09.860Z,30.20
2023-01-30T17:00:53.668Z,30.00
2023-01-30T17:03:37.824Z,30.80
2023-01-30T17:06:28.224Z,30.80
2023-01-30T17:09:05.842Z,31.60
2023-01-30T17:11:44.507Z,30.80
2023-01-30T17:14:30.708Z,30.40
2023-01-30T17:17:11.089Z,30.20
2023-01-30T17:19:48.563Z,29.30
2023-01-30T17:22:26.555Z,29.70
2023-01-30T17:25:09.795Z,28.20
2023-01-30T17:27:46.538Z,28.20
2023-01-30T17:30:28.027Z,31.20
2023-01-30T17:33:05.431Z,27.30
2023-01-30T17:35:43.134Z,27.80
2023-01-30T17:38:21.629Z,25.70
2023-01-30T17:40:58.348Z,29.30
2023-01-30T17:43:35.015Z,31.60
2023-01-30T17:46:14.013Z,30.40
2023-01-30T17:48:51.958Z,31.40
2023-01-30T17:51:28.848Z,31.40
2023-01-30T17:54:06.379Z,31.40
2023-01-30T17:56:46.254Z,27.90
2023-01-30T17:59:24.099Z,30.20
2023-01-30T18:02:01.818Z,29.90
2023-01-30T18:04:40.224Z,29.80
2023-01-30T18:07:20.835Z,29.90
2023-01-30T18:09:57.683Z,30.60
2023-01-30T18:12:35.289Z,28.80
2023-01-30T18:15:16.835Z,29.70
2023-01-30T18:17:56.599Z,33.20
2023-01-30T18:20:33.544Z,33.30
2023-01-30T18:23:11.099Z,30.50
2023-01-30T18:25:47.359Z,32.50
2023-01-30T18:28:24.941Z,31.90
2023-01-30T18:31:02.099Z,31.70
2023-01-30T18:33:39.450Z,29.50
2023-01-30T18:36:18.716Z,28.40
2023-01-30T18:38:56.044Z,29.70
2023-01-30T18:41:33.090Z,27.20
2023-01-30T18:44:13.151Z,28.70
2023-01-30T18:46:51.401Z,31.30
2023-01-30T18:49:28.365Z,30.60
2023-01-30T18:52:04.392Z,32.10
2023-01-30T18:54:41.220Z,32.70
2023-01-30T18:57:18.469Z,30.00
2023-01-30T18:59:55.367Z,32.60
2023-01-30T19:02:32.957Z,34.10
2023-01-30T19:05:11.472Z,28.80
2023-01-30T19:07:47.721Z,29.90
2023-01-30T19:10:25.333Z,29.20
2023-01-30T19:13:17.799Z,32.80
2023-01-30T19:16:00.075Z,33.60
2023-01-30T19:18:38.034Z,31.10
2023-01-30T19:21:15.536Z,30.20
2023-01-30T19:23:52.361Z,31.80
2023-01-30T19:26:30.202Z,29.90
2023-01-30T19:29:06.280Z,31.20
2023-01-30T19:31:42.031Z,27.90
2023-01-30T19:34:19.962Z,30.40
2023-01-30T19:36:56.338Z,29.90
2023-01-30T19:39:33.423Z,28.30
2023-01-30T19:42:10.693Z,29.90
2023-01-30T19:44:47.763Z,33.40
2023-01-30T19:47:25.212Z,31.20
2023-01-30T19:50:02.655Z,30.50
2023-01-30T19:52:39.708Z,30.80
2023-01-30T19:55:18.988Z,28.20
2023-01-30T19:57:54.888Z,29.90
2023-01-30T20:00:32.679Z,28.80
2023-01-30T20:03:09.186Z,32.30
2023-01-30T20:05:46.542Z,28.70
2023-01-30T20:08:32.179Z,28.30
2023-01-30T20:11:15.570Z,25.60
2023-01-30T20:13:53.642Z,26.80
2023-01-30T20:16:32.299Z,27.30
2023-01-30T20:19:11.936Z,27.60
2023-01-30T20:21:48.965Z,31.60
2023-01-30T20:24:25.136Z,30.80
2023-01-30T20:27:02.454Z,30.60
2023-01-30T20:29:39.814Z,27.90
2023-01-30T20:32:16.492Z,29.90
2023-01-30T20:34:53.720Z,28.60
2023-01-30T20:37:31.391Z,27.50
2023-01-30T20:40:09.726Z,28.90
2023-01-30T20:42:47.287Z,26.60
2023-01-30T20:45:24.565Z,27.40
2023-01-30T20:48:01.481Z,27.60
2023-01-30T20:50:38.563Z,27.10
2023-01-30T20:53:15.661Z,24.90
2023-01-30T20:55:53.026Z,28.50
2023-01-30T20:58:29.354Z,26.30
2023-01-30T21:01:17.673Z,31.20
2023-01-30T21:03:56.845Z,30.30
2023-01-30T21:06:42.921Z,30.60
2023-01-30T21:09:24.578Z,28.80
2023-01-30T21:12:01.033Z,27.30
2023-01-30T21:14:38.208Z,29.40
2023-01-30T21:17:14.711Z,25.60
2023-01-30T21:19:51.240Z,27.70
2023-01-30T21:22:28.264Z,29.10
2023-01-30T21:25:05.340Z,26.80
2023-01-30T21:27:41.438Z,27.20
2023-01-30T21:30:22.479Z,29.00
2023-01-30T21:33:00.036Z,31.30
2023-01-30T21:35:38.002Z,31.60
2023-01-30T21:38:33.190Z,29.60
2023-01-30T21:41:27.331Z,27.90
2023-01-30T21:44:04.542Z,27.60
2023-01-30T21:46:45.655Z,27.50
2023-01-30T21:49:23.672Z,30.90
2023-01-30T21:51:59.630Z,28.60
2023-01-30T21:54:37.811Z,28.70
2023-01-30T21:57:14.788Z,28.70
2023-01-30T21:59:51.926Z,28.80
2023-01-30T22:02:28.910Z,26.40
2023-01-30T22:05:04.417Z,27.70
2023-01-30T22:07:41.766Z,29.20
2023-01-30T22:10:21.892Z,27.80
2023-01-30T22:12:58.575Z,29.30
2023-01-30T22:15:35.575Z,28.90
2023-01-30T22:18:13.311Z,35.10
2023-01-30T22:20:50.264Z,29.40
2023-01-30T22:23:27.280Z,28.80
2023-01-30T22:26:04.042Z,28.60
2023-01-30T22:28:40.529Z,27.40
2023-01-30T22:31:19.700Z,29.50
2023-01-30T22:33:59.086Z,29.70
2023-01-30T22:36:38.745Z,29.20
2023-01-30T22:39:15.724Z,26.40
2023-01-30T22:41:52.341Z,27.50
2023-01-30T22:44:30.393Z,25.60
2023-01-30T22:47:06.783Z,26.90
2023-01-30T22:49:43.580Z,24.20
2023-01-30T22:52:20.061Z,26.80
2023-01-30T22:54:56.711Z,30.30
2023-01-30T22:57:33.069Z,30.80
2023-01-30T23:00:16.319Z,31.10
2023-01-30T23:02:53.773Z,30.30
2023-01-30T23:05:31.507Z,29.50
2023-01-30T23:08:09.201Z,27.40
2023-01-30T23:10:48.153Z,27.40
2023-01-30T23:13:25.431Z,26.60
2023-01-30T23:16:04.176Z,26.70
2023-01-30T23:19:02.737Z,27.10
2023-01-30T23:21:41.905Z,27.10
2023-01-30T23:24:21.790Z,30.90
2023-01-30T23:26:58.704Z,26.00
2023-01-30T23:29:38.017Z,26.30
2023-01-30T23:32:15.629Z,26.30
2023-01-30T23:34:51.938Z,28.50
2023-01-30T23:37:42.202Z,27.30
2023-01-30T23:40:22.903Z,27.40
2023-01-30T23:42:59.455Z,27.20
2023-01-30T23:45:38.888Z,28.00
2023-01-30T23:48:16.614Z,23.20
2023-01-30T23:50:54.226Z,24.90
2023-01-30T23:53:31.026Z,25.20
2023-01-30T23:56:08.697Z,24.90
2023-01-30T23:58:44.774Z,24.70
